ADDS METAR Data INFO
IDs: Format: Raw Decoded Include TAF

Data at: 0336 UTC 19 Jul 2018

KATS 190335Z AUTO 17009KT 10SM CLR 33/11 A2997 RMK AO2
KATS 190315Z AUTO 17009KT 10SM CLR 34/10 A2997 RMK AO2
KATS 190255Z AUTO 16007KT 10SM CLR 34/10 A2996 RMK AO2
KATS 190235Z AUTO 16007KT 10SM CLR 34/10 A2996 RMK AO2
KATS 190215Z AUTO 14008KT 10SM CLR 35/10 A2996 RMK AO2
KATS 190155Z AUTO 13008KT 10SM CLR 37/09 A2996 RMK AO2
KATS 190135Z AUTO 12006KT 10SM CLR 37/08 A2995 RMK AO2
KATS 190115Z AUTO 14007KT 10SM CLR 38/08 A2995 RMK AO2
KATS 190055Z AUTO 14009KT 10SM CLR 38/08 A2995 RMK AO2
KATS 190035Z AUTO 12006KT 10SM CLR 38/08 A2995 RMK AO2
KATS 190015Z AUTO 14009KT 10SM CLR 38/09 A2995 RMK AO2
KATS 182355Z AUTO 14005G10KT 10SM CLR 38/09 A2995 RMK AO2
KATS 182335Z AUTO 14007KT 10SM CLR 38/09 A2996 RMK AO2
KATS 182315Z AUTO VRB03G10KT 10SM CLR 38/09 A2997 RMK AO2
KATS 182255Z AUTO 00000KT 10SM CLR 38/09 A2998 RMK AO2
KATS 182235Z AUTO 18007KT 10SM CLR 38/09 A2998 RMK AO2
KATS 182215Z AUTO 14007KT 100V170 10SM CLR 38/09 A2999 RMK AO2
KATS 182155Z AUTO 13007G14KT 10SM CLR 38/10 A2999 RMK AO2
KATS 182135Z AUTO 28005G11KT 10SM CLR 38/09 A3000 RMK AO2
KATS 182115Z AUTO VRB05KT 10SM CLR 38/09 A3001 RMK AO2
KATS 182055Z AUTO 07007KT 040V100 10SM CLR 38/10 A3002 RMK AO2
KATS 182035Z AUTO 09011KT 10SM CLR 38/10 A3002 RMK AO2
KATS 182015Z AUTO 12012KT 070V130 10SM CLR 38/10 A3003 RMK AO2
KATS 181955Z AUTO 02005KT 10SM CLR 37/10 A3004 RMK AO2
KATS 181935Z AUTO 32010KT 10SM CLR 37/10 A3005 RMK AO2
KATS 181915Z AUTO 34008KT 10SM CLR 37/10 A3006 RMK AO2
KATS 181855Z AUTO VRB04G11KT 10SM CLR 36/10 A3007 RMK AO2
KATS 181835Z AUTO VRB03KT 10SM CLR 36/11 A3007 RMK AO2
KATS 181815Z AUTO VRB05KT 10SM CLR 36/11 A3008 RMK AO2
KATS 181755Z AUTO 00000KT 10SM CLR 35/12 A3009 RMK AO2
KATS 181735Z AUTO 00000KT 10SM CLR 35/12 A3010 RMK AO2
KATS 181715Z AUTO 00000KT 10SM CLR 34/12 A3011 RMK AO2
KATS 181655Z AUTO 04005KT 10SM CLR 34/12 A3011 RMK AO2
KATS 181635Z AUTO 00000KT 10SM CLR 33/12 A3011 RMK AO2
KATS 181615Z AUTO VRB03KT 10SM CLR 32/12 A3012 RMK AO2
KATS 181555Z AUTO 14004G10KT 10SM CLR 32/13 A3012 RMK AO2
KATS 181535Z AUTO 14006KT 10SM CLR 31/13 A3012 RMK AO2
KATS 181515Z AUTO 13004KT 10SM CLR 31/12 A3012 RMK AO2
KATS 181455Z AUTO 00000KT 10SM CLR 31/12 A3013 RMK AO2
KATS 181435Z AUTO 22005KT 10SM CLR 30/12 A3012 RMK AO2
KATS 181415Z AUTO 26005KT 10SM CLR 30/12 A3013 RMK AO2
KATS 181355Z AUTO 24007KT 10SM CLR 29/12 A3012 RMK AO2
KATS 181335Z AUTO 22007KT 10SM CLR 28/11 A3012 RMK AO2
KATS 181315Z AUTO 20005KT 10SM CLR 25/10 A3013 RMK AO2
KATS 181255Z AUTO 00000KT 10SM CLR 23/10 A3013 RMK AO2
KATS 181235Z AUTO 23007KT 10SM CLR 22/09 A3012 RMK AO2
KATS 181215Z AUTO 19003KT 10SM CLR 22/09 A3012 RMK AO2
KATS 181155Z AUTO 00000KT 10SM CLR 22/09 A3012 RMK AO2
KATS 181135Z AUTO 14004KT 10SM CLR 23/10 A3011 RMK AO2
KATS 181115Z AUTO 00000KT 10SM CLR 23/10 A3011 RMK AO2
KATS 181055Z AUTO 26006KT 10SM CLR 24/10 A3010 RMK AO2
KATS 181035Z AUTO 27009KT 10SM CLR 24/10 A3010 RMK AO2
KATS 181015Z AUTO 27009KT 10SM CLR 24/10 A3010 RMK AO2
KATS 180955Z AUTO 28008KT 10SM CLR 24/10 A3010 RMK AO2
KATS 180935Z AUTO 27008KT 10SM CLR 24/10 A3010 RMK AO2
KATS 180915Z AUTO 28007KT 10SM CLR 24/10 A3011 RMK AO2
KATS 180855Z AUTO 29006KT 10SM CLR 24/10 A3010 RMK AO2
KATS 180835Z AUTO 25006KT 10SM CLR 25/10 A3010 RMK AO2
KATS 180815Z AUTO 24007KT 10SM CLR 25/10 A3011 RMK AO2
KATS 180755Z AUTO 25007KT 10SM CLR 25/10 A3011 RMK AO2
KATS 180735Z AUTO 25007KT 10SM CLR 25/10 A3011 RMK AO2
KATS 180715Z AUTO 22007KT 10SM CLR 25/10 A3011 RMK AO2
KATS 180655Z AUTO 21006KT 10SM CLR 26/10 A3011 RMK AO2
KATS 180635Z AUTO 20007KT 10SM CLR 27/10 A3011 RMK AO2
KATS 180615Z AUTO 18008KT 10SM CLR 28/11 A3011 RMK AO2
KATS 180555Z AUTO 19008KT 10SM CLR 27/10 A3010 RMK AO2
KATS 180535Z AUTO 19008KT 10SM CLR 28/10 A3010 RMK AO2
KATS 180515Z AUTO 20009KT 10SM CLR 28/10 A3010 RMK AO2
KATS 180455Z AUTO 20008KT 10SM CLR 28/09 A3010 RMK AO2
KATS 180435Z AUTO 17006KT 10SM CLR 29/09 A3010 RMK AO2
KATS 180415Z AUTO 17006KT 10SM CLR 29/09 A3010 RMK AO2
KATS 180355Z AUTO 16005KT 10SM CLR 29/08 A3009 RMK AO2
KATS 180335Z AUTO 16006KT 10SM CLR 30/08 A3008 RMK AO2
KATS 180315Z AUTO 16006KT 10SM CLR 30/08 A3007 RMK AO2
KATS 180255Z AUTO 15006KT 10SM CLR 31/08 A3006 RMK AO2
KATS 180235Z AUTO 14007KT 10SM CLR 32/08 A3006 RMK AO2
KATS 180215Z AUTO 14007KT 10SM CLR 32/08 A3006 RMK AO2
KATS 180155Z AUTO 13006KT 10SM CLR 34/08 A3006 RMK AO2
KATS 180135Z AUTO 12007KT 10SM CLR 34/07 A3006 RMK AO2
KATS 180115Z AUTO 12008KT 10SM CLR 35/07 A3006 RMK AO2
KATS 180055Z AUTO 12011KT 10SM CLR 35/07 A3006 RMK AO2
KATS 180035Z AUTO 10009KT 10SM CLR 35/08 A3005 RMK AO2
KATS 180015Z AUTO 11010KT 10SM CLR 35/08 A3006 RMK AO2
KATS 172355Z AUTO 11010G16KT 10SM CLR 35/08 A3006 RMK AO2
KATS 172335Z AUTO 13010KT 10SM CLR 36/08 A3006 RMK AO2
KATS 172315Z AUTO 11006G11KT 10SM CLR 35/08 A3007 RMK AO2
KATS 172255Z AUTO 10007G15KT 10SM CLR 35/08 A3007 RMK AO2
KATS 172235Z AUTO 13008G13KT 10SM CLR 35/08 A3008 RMK AO2
KATS 172215Z AUTO VRB04G12KT 10SM CLR 35/08 A3008 RMK AO2
KATS 172155Z AUTO VRB05G11KT 10SM CLR 35/09 A3008 RMK AO2
KATS 172135Z AUTO 12010KT 10SM CLR 35/08 A3009 RMK AO2
KATS 172115Z AUTO 17009G16KT 130V200 10SM CLR 35/09 A3010 RMK AO2
KATS 172055Z AUTO 10014KT 10SM CLR 35/09 A3010 RMK AO2
KATS 172035Z AUTO 12009G15KT 10SM CLR 35/09 A3011 RMK AO2
KATS 172015Z AUTO 11009KT 080V160 10SM CLR 34/10 A3012 RMK AO2
KATS 171955Z AUTO 12011KT 10SM CLR 34/11 A3012 RMK AO2
KATS 171935Z AUTO 08006G16KT 10SM CLR 34/11 A3013 RMK AO2
KATS 171915Z AUTO 11009G18KT 10SM CLR 34/11 A3013 RMK AO2
KATS 171855Z AUTO 09013KT 050V110 10SM CLR 33/12 A3014 RMK AO2
KATS 171835Z AUTO 18008G17KT 9SM CLR 34/12 A3015 RMK AO2
KATS 171815Z AUTO 12011KT 10SM CLR 33/12 A3016 RMK AO2
KATS 171755Z AUTO 12009KT 10SM CLR 33/13 A3016 RMK AO2
KATS 171735Z AUTO 16010KT 9SM CLR 32/13 A3016 RMK AO2
KATS 171715Z AUTO 10007KT 10SM CLR 32/13 A3017 RMK AO2
KATS 171655Z AUTO VRB04G10KT 10SM CLR 32/14 A3017 RMK AO2
KATS 171635Z AUTO 16006G13KT 10SM CLR 31/15 A3017 RMK AO2
KATS 171615Z AUTO 14006G12KT 10SM CLR 30/15 A3018 RMK AO2
KATS 171555Z AUTO 19007KT 10SM CLR 29/16 A3018 RMK AO2